createdAt,value
2018-12-18T00:01:57.487Z,17.27
2018-12-18T00:04:26.049Z,18.07
2018-12-18T00:06:54.605Z,18.93
2018-12-18T00:09:23.278Z,18.67
2018-12-18T00:11:51.933Z,19.93
2018-12-18T00:14:20.490Z,18.97
2018-12-18T00:16:49.010Z,20.63
2018-12-18T00:19:17.539Z,33.47
2018-12-18T00:21:46.061Z,25.43
2018-12-18T00:24:14.590Z,20.07
2018-12-18T00:26:43.126Z,18.37
2018-12-18T00:29:11.638Z,26.47
2018-12-18T00:31:40.141Z,23.57
2018-12-18T00:34:08.701Z,25.00
2018-12-18T00:36:37.221Z,23.43
2018-12-18T00:39:08.974Z,21.13
2018-12-18T00:41:37.486Z,21.60
2018-12-18T00:44:06.037Z,19.53
2018-12-18T00:46:34.589Z,21.07
2018-12-18T00:49:03.137Z,19.50
2018-12-18T00:51:31.684Z,19.70
2018-12-18T00:54:00.233Z,18.57
2018-12-18T00:56:28.789Z,18.53
2018-12-18T00:58:57.337Z,16.87
2018-12-18T01:01:25.879Z,15.50
2018-12-18T01:03:54.434Z,15.77
2018-12-18T01:06:22.949Z,14.47
2018-12-18T01:08:51.494Z,14.53
2018-12-18T01:11:20.056Z,16.63
2018-12-18T01:13:48.600Z,17.03
2018-12-18T01:16:17.134Z,16.17
2018-12-18T01:18:46.161Z,15.47
2018-12-18T01:21:14.701Z,16.57
2018-12-18T01:23:43.234Z,17.27
2018-12-18T01:26:11.754Z,15.87
2018-12-18T01:28:40.309Z,15.70
2018-12-18T01:31:08.841Z,15.57
2018-12-18T01:33:37.370Z,14.47
2018-12-18T01:36:05.912Z,14.97
2018-12-18T01:38:34.566Z,16.63
2018-12-18T01:41:03.086Z,15.17
2018-12-18T01:43:31.631Z,14.90
2018-12-18T01:46:00.172Z,14.07
2018-12-18T01:48:28.698Z,14.90
2018-12-18T01:50:57.243Z,14.47
2018-12-18T01:53:25.753Z,15.57
2018-12-18T01:55:54.280Z,15.80
2018-12-18T01:58:22.798Z,15.57
2018-12-18T02:00:51.333Z,15.93
2018-12-18T02:03:19.857Z,14.53
2018-12-18T02:05:48.363Z,15.33
2018-12-18T02:08:16.916Z,15.20
2018-12-18T02:10:45.446Z,15.00
2018-12-18T02:13:14.178Z,14.80
2018-12-18T02:15:42.700Z,15.87
2018-12-18T02:18:11.238Z,14.63
2018-12-18T02:20:39.782Z,13.63
2018-12-18T02:23:08.310Z,14.60
2018-12-18T02:25:36.846Z,15.37
2018-12-18T02:28:05.387Z,14.53
2018-12-18T02:30:34.178Z,14.73
2018-12-18T02:33:02.718Z,14.07
2018-12-18T02:35:31.366Z,14.33
2018-12-18T02:37:59.881Z,15.13
2018-12-18T02:40:28.427Z,14.57
2018-12-18T02:42:56.978Z,13.57
2018-12-18T02:45:25.496Z,14.30
2018-12-18T02:47:54.017Z,14.53
2018-12-18T02:50:22.689Z,15.03
2018-12-18T02:52:51.216Z,14.00
2018-12-18T02:55:19.761Z,13.70
2018-12-18T02:57:48.288Z,13.80
2018-12-18T03:00:16.827Z,13.87
2018-12-18T03:02:45.359Z,14.27
2018-12-18T03:05:14.237Z,14.87
2018-12-18T03:07:42.795Z,14.20
2018-12-18T03:10:11.340Z,15.87
2018-12-18T03:12:39.890Z,14.90
2018-12-18T03:15:08.473Z,14.27
2018-12-18T03:17:37.011Z,14.17
2018-12-18T03:20:06.218Z,13.57
2018-12-18T03:22:34.767Z,14.80
2018-12-18T03:25:03.525Z,15.20
2018-12-18T03:27:32.071Z,14.33
2018-12-18T03:30:00.604Z,15.07
2018-12-18T03:32:37.184Z,20.33
2018-12-18T03:35:05.853Z,29.97
2018-12-18T03:37:34.375Z,28.80
2018-12-18T03:40:03.103Z,27.57
2018-12-18T03:42:31.634Z,27.40
2018-12-18T03:45:00.180Z,23.90
2018-12-18T03:47:28.678Z,21.70
2018-12-18T03:49:57.230Z,20.50
2018-12-18T03:52:25.802Z,19.23
2018-12-18T03:54:54.338Z,18.50
2018-12-18T03:57:22.860Z,15.00
2018-12-18T03:59:51.405Z,14.03
2018-12-18T04:02:20.057Z,13.93
2018-12-18T04:04:48.589Z,13.00
2018-12-18T04:07:17.101Z,14.33
2018-12-18T04:09:45.654Z,13.53
2018-12-18T04:12:19.542Z,13.73
2018-12-18T04:14:48.146Z,13.03
2018-12-18T04:17:16.658Z,13.07
2018-12-18T04:19:45.211Z,13.07
2018-12-18T04:22:13.740Z,12.27
2018-12-18T04:24:42.272Z,13.37
2018-12-18T04:27:10.826Z,12.80
2018-12-18T04:29:39.333Z,12.70
2018-12-18T04:32:07.869Z,13.20
2018-12-18T04:34:42.728Z,13.33
2018-12-18T04:37:06.949Z,13.07
2018-12-18T04:39:35.471Z,13.17
2018-12-18T04:42:04.013Z,12.87
2018-12-18T04:44:32.560Z,13.53
2018-12-18T04:47:01.210Z,14.43
2018-12-18T04:49:29.731Z,14.03
2018-12-18T04:51:58.242Z,14.23
2018-12-18T04:54:26.771Z,14.73
2018-12-18T04:56:55.342Z,15.17
2018-12-18T04:59:23.878Z,13.03
2018-12-18T05:01:52.399Z,14.27
2018-12-18T05:04:20.921Z,14.57
2018-12-18T05:06:49.482Z,15.20
2018-12-18T05:09:18.385Z,16.03
2018-12-18T05:11:46.923Z,16.20
2018-12-18T05:14:15.485Z,15.83
2018-12-18T05:16:44.012Z,14.27
2018-12-18T05:19:12.562Z,15.17
2018-12-18T05:21:41.114Z,14.33
2018-12-18T05:24:09.647Z,14.33
2018-12-18T05:26:38.209Z,14.13
2018-12-18T05:29:06.744Z,17.05
2018-12-18T05:31:35.282Z,14.93
2018-12-18T05:34:03.823Z,13.60
2018-12-18T05:36:32.391Z,13.97
2018-12-18T05:39:00.993Z,13.30
2018-12-18T05:41:29.526Z,16.63
2018-12-18T05:43:58.068Z,12.87
2018-12-18T05:46:26.577Z,13.07
2018-12-18T05:48:55.262Z,13.23
2018-12-18T05:51:23.804Z,18.17
2018-12-18T05:53:52.354Z,19.03
2018-12-18T05:56:20.887Z,15.07
2018-12-18T05:58:49.426Z,14.07
2018-12-18T06:01:18.002Z,13.87
2018-12-18T06:03:46.545Z,13.47
2018-12-18T06:06:15.195Z,13.93
2018-12-18T06:08:43.703Z,13.43
2018-12-18T06:11:12.274Z,12.40
2018-12-18T06:13:40.810Z,11.77
2018-12-18T06:16:09.400Z,12.50
2018-12-18T06:18:37.906Z,13.13
2018-12-18T06:21:06.467Z,13.37
2018-12-18T06:23:35.025Z,12.57
2018-12-18T06:26:03.913Z,12.73
2018-12-18T06:28:32.489Z,15.63
2018-12-18T06:31:01.059Z,15.97
2018-12-18T06:33:29.589Z,13.93
2018-12-18T06:35:58.116Z,15.23
2018-12-18T06:38:26.654Z,14.57
2018-12-18T06:40:55.195Z,13.80
2018-12-18T06:43:23.770Z,14.03
2018-12-18T06:45:52.318Z,13.03
2018-12-18T06:48:20.843Z,14.07
2018-12-18T06:50:49.394Z,12.73
2018-12-18T06:53:17.929Z,12.77
2018-12-18T06:55:46.465Z,14.93
2018-12-18T06:58:15.033Z,14.70
2018-12-18T07:00:43.537Z,12.93
2018-12-18T07:03:12.062Z,12.13
2018-12-18T07:05:40.571Z,15.90
2018-12-18T07:08:09.366Z,14.30
2018-12-18T07:10:37.895Z,12.40
2018-12-18T07:13:06.419Z,13.43
2018-12-18T07:15:34.951Z,13.17
2018-12-18T07:18:03.486Z,14.33
2018-12-18T07:20:32.026Z,20.47
2018-12-18T07:23:00.570Z,18.57
2018-12-18T07:25:29.195Z,14.73
2018-12-18T07:27:57.726Z,13.20
2018-12-18T07:30:26.261Z,12.57
2018-12-18T07:32:54.766Z,22.33
2018-12-18T07:35:23.594Z,12.40
2018-12-18T07:37:52.231Z,9.70
2018-12-18T07:40:20.761Z,12.23
2018-12-18T07:42:49.315Z,13.07
2018-12-18T07:45:17.845Z,14.93
2018-12-18T07:47:46.362Z,15.97
2018-12-18T07:50:14.920Z,13.27
2018-12-18T07:52:43.437Z,10.70
2018-12-18T07:55:11.973Z,10.50
2018-12-18T07:57:40.485Z,11.83
2018-12-18T08:00:09.159Z,10.83
2018-12-18T08:02:37.689Z,12.90
2018-12-18T08:05:06.553Z,14.47
2018-12-18T08:07:35.086Z,12.37
2018-12-18T08:10:03.777Z,9.43
2018-12-18T08:12:32.307Z,7.93
2018-12-18T08:15:00.857Z,14.17
2018-12-18T08:17:29.379Z,9.37
2018-12-18T08:19:57.913Z,7.60
2018-12-18T08:22:26.481Z,9.70
2018-12-18T08:24:55.058Z,12.33
2018-12-18T08:27:23.577Z,9.13
2018-12-18T08:29:52.110Z,8.27
2018-12-18T08:32:20.766Z,9.97
2018-12-18T08:34:49.318Z,9.23
2018-12-18T08:37:17.867Z,13.57
2018-12-18T08:39:46.404Z,7.03
2018-12-18T08:42:15.077Z,11.13
2018-12-18T08:44:43.585Z,8.00
2018-12-18T08:47:12.102Z,9.10
2018-12-18T08:49:40.739Z,6.60
2018-12-18T08:52:09.269Z,7.37
2018-12-18T08:54:37.810Z,7.10
2018-12-18T08:57:06.466Z,9.60
2018-12-18T08:59:35.014Z,6.50
2018-12-18T09:02:03.923Z,7.47
2018-12-18T09:04:32.458Z,5.30
2018-12-18T09:07:00.977Z,5.30
2018-12-18T09:09:29.485Z,6.23
2018-12-18T09:11:58.011Z,6.43
2018-12-18T09:14:26.554Z,10.63
2018-12-18T09:17:00.347Z,6.27
2018-12-18T09:19:28.867Z,9.27
2018-12-18T09:21:57.398Z,6.87
2018-12-18T09:24:25.947Z,6.23
2018-12-18T09:26:54.462Z,6.13
2018-12-18T09:29:22.995Z,5.47
2018-12-18T09:31:51.734Z,5.90
2018-12-18T09:34:20.257Z,5.40
2018-12-18T09:36:48.778Z,5.77
2018-12-18T09:39:19.179Z,7.83
2018-12-18T09:41:48.112Z,4.97
2018-12-18T09:44:18.703Z,4.70
2018-12-18T09:46:47.254Z,8.93
2018-12-18T09:49:15.763Z,43.70
2018-12-18T09:51:44.297Z,16.83
2018-12-18T09:54:12.850Z,14.77
2018-12-18T09:56:46.850Z,4.37
2018-12-18T09:59:15.388Z,40.60
2018-12-18T10:01:43.914Z,8.77
2018-12-18T10:04:12.443Z,4.00
2018-12-18T10:06:40.979Z,3.77
2018-12-18T10:09:09.975Z,4.23
2018-12-18T10:11:38.594Z,6.67
2018-12-18T10:14:07.154Z,4.47
2018-12-18T10:16:35.682Z,4.43
2018-12-18T10:19:04.224Z,4.40
2018-12-18T10:21:32.759Z,4.30
2018-12-18T10:24:01.293Z,5.03
2018-12-18T10:26:29.810Z,4.30
2018-12-18T10:28:58.371Z,4.43
2018-12-18T10:31:26.910Z,7.00
2018-12-18T10:33:55.446Z,4.43
2018-12-18T10:36:23.973Z,3.57
2018-12-18T10:38:52.505Z,3.37
2018-12-18T10:41:21.074Z,4.70
2018-12-18T10:43:49.601Z,3.93
2018-12-18T10:46:18.163Z,4.57
2018-12-18T10:48:46.770Z,5.73
2018-12-18T10:51:15.307Z,5.67
2018-12-18T10:53:43.846Z,7.47
2018-12-18T10:56:12.392Z,4.70
2018-12-18T10:58:40.991Z,5.73
2018-12-18T11:01:18.561Z,5.03
2018-12-18T11:03:47.230Z,4.70
2018-12-18T11:06:15.838Z,5.43
2018-12-18T11:08:44.350Z,4.90
2018-12-18T11:11:13.058Z,4.00
2018-12-18T11:13:41.994Z,4.60
2018-12-18T11:16:10.535Z,4.57
2018-12-18T11:18:39.075Z,3.20
2018-12-18T11:21:07.603Z,3.47
2018-12-18T11:23:36.143Z,3.70
2018-12-18T11:26:04.692Z,3.30
2018-12-18T11:28:33.205Z,4.30
2018-12-18T11:31:01.863Z,4.20
2018-12-18T11:33:30.409Z,3.53
2018-12-18T11:35:58.938Z,6.70
2018-12-18T11:38:27.465Z,4.27
2018-12-18T11:40:55.979Z,4.03
2018-12-18T11:43:24.631Z,2.53
2018-12-18T11:45:53.198Z,3.30
2018-12-18T11:48:21.767Z,3.47
2018-12-18T11:50:50.290Z,4.10
2018-12-18T11:53:18.830Z,4.00
2018-12-18T11:55:47.358Z,3.63
2018-12-18T11:58:15.883Z,3.10
2018-12-18T12:00:44.422Z,4.07
2018-12-18T12:03:12.931Z,4.87
2018-12-18T12:05:41.605Z,3.60
2018-12-18T12:08:10.121Z,3.20
2018-12-18T12:10:38.629Z,3.53
2018-12-18T12:13:07.155Z,3.40
2018-12-18T12:15:35.664Z,3.90
2018-12-18T12:18:04.197Z,3.60
2018-12-18T12:20:32.717Z,4.40
2018-12-18T12:23:01.258Z,5.97
2018-12-18T12:25:29.787Z,5.10
2018-12-18T12:28:03.581Z,4.10
2018-12-18T12:30:32.105Z,3.77
2018-12-18T12:33:00.775Z,3.90
2018-12-18T12:35:29.345Z,4.57
2018-12-18T12:37:57.898Z,4.83
2018-12-18T12:40:26.469Z,3.70
2018-12-18T12:42:55.003Z,4.33
2018-12-18T12:45:23.555Z,3.17
2018-12-18T12:47:55.795Z,2.70
2018-12-18T12:50:24.336Z,2.83
2018-12-18T12:52:52.854Z,2.77
2018-12-18T12:55:21.400Z,2.77
2018-12-18T12:57:49.949Z,3.60
2018-12-18T13:00:18.478Z,3.03
2018-12-18T13:02:47.002Z,3.37
2018-12-18T13:05:15.531Z,4.13
2018-12-18T13:07:44.094Z,3.60
2018-12-18T13:10:12.626Z,3.77
2018-12-18T13:12:41.160Z,4.50
2018-12-18T13:15:09.678Z,4.07
2018-12-18T13:17:38.230Z,5.13
2018-12-18T13:20:07.122Z,5.93
2018-12-18T13:22:35.650Z,4.23
2018-12-18T13:25:04.838Z,4.70
2018-12-18T13:27:33.353Z,6.13
2018-12-18T13:30:02.022Z,5.30
2018-12-18T13:32:30.551Z,6.87
2018-12-18T13:34:59.321Z,6.93
2018-12-18T13:37:27.845Z,6.37
2018-12-18T13:39:56.366Z,6.97
2018-12-18T13:42:24.918Z,7.47
2018-12-18T13:44:53.438Z,10.17
2018-12-18T13:47:27.160Z,6.23
2018-12-18T13:49:52.583Z,44.27
2018-12-18T13:52:21.101Z,65.93
2018-12-18T13:54:49.671Z,6.57
2018-12-18T13:57:18.217Z,11.57
2018-12-18T13:59:46.772Z,7.40
2018-12-18T14:02:15.314Z,7.93
2018-12-18T14:04:43.857Z,9.87
2018-12-18T14:07:12.634Z,7.17
2018-12-18T14:09:41.197Z,6.93
2018-12-18T14:12:09.705Z,5.20
2018-12-18T14:14:38.246Z,8.20
2018-12-18T14:17:06.770Z,8.40
2018-12-18T14:19:35.289Z,8.70
2018-12-18T14:22:03.838Z,15.73
2018-12-18T14:24:32.368Z,9.20
2018-12-18T14:27:00.897Z,14.33
2018-12-18T14:29:29.449Z,9.73
2018-12-18T14:31:57.979Z,9.57
2018-12-18T14:34:26.513Z,9.47
2018-12-18T14:36:56.354Z,7.20
2018-12-18T14:39:25.207Z,6.20
2018-12-18T14:41:53.781Z,12.53
2018-12-18T14:44:22.325Z,9.30
2018-12-18T14:46:50.865Z,8.13
2018-12-18T14:49:19.394Z,12.83
2018-12-18T14:51:47.962Z,11.83
2018-12-18T14:54:16.513Z,8.30
2018-12-18T14:56:45.061Z,8.10
2018-12-18T14:59:13.607Z,6.93
2018-12-18T15:01:42.162Z,8.07
2018-12-18T15:04:10.669Z,7.03
2018-12-18T15:06:39.217Z,7.30
2018-12-18T15:09:08.693Z,7.27
2018-12-18T15:11:37.215Z,7.40
2018-12-18T15:14:05.746Z,5.93
2018-12-18T15:16:34.281Z,7.00
2018-12-18T15:19:02.826Z,6.33
2018-12-18T15:21:31.441Z,12.00
2018-12-18T15:23:59.966Z,6.97
2018-12-18T15:26:28.517Z,7.03
2018-12-18T15:28:57.045Z,6.50
2018-12-18T15:31:25.579Z,6.87
2018-12-18T15:33:54.110Z,7.17
2018-12-18T15:36:22.625Z,8.27
2018-12-18T15:38:51.391Z,6.63
2018-12-18T15:41:19.926Z,6.40
2018-12-18T15:43:48.505Z,7.70
2018-12-18T15:46:17.034Z,7.77
2018-12-18T15:48:45.563Z,8.00
2018-12-18T15:51:14.133Z,8.50
2018-12-18T15:53:42.646Z,8.07
2018-12-18T15:56:11.161Z,7.50
2018-12-18T15:58:39.696Z,8.50
2018-12-18T16:01:08.250Z,8.53
2018-12-18T16:03:36.790Z,9.67
2018-12-18T16:06:05.329Z,10.20
2018-12-18T16:08:33.858Z,11.63
2018-12-18T16:11:02.378Z,12.97
2018-12-18T16:13:30.917Z,10.57
2018-12-18T16:15:59.450Z,10.23
2018-12-18T16:18:27.986Z,10.30
2018-12-18T16:20:56.505Z,14.57
2018-12-18T16:23:25.030Z,12.43
2018-12-18T16:25:53.587Z,12.53
2018-12-18T16:28:22.137Z,11.80
2018-12-18T16:30:50.679Z,14.63
2018-12-18T16:33:19.202Z,12.27
2018-12-18T16:35:47.762Z,12.40
2018-12-18T16:38:16.308Z,10.90
2018-12-18T16:40:44.848Z,11.30
2018-12-18T16:43:13.399Z,11.10
2018-12-18T16:45:41.956Z,10.70
2018-12-18T16:48:10.526Z,10.93
2018-12-18T16:50:39.070Z,11.33
2018-12-18T16:53:07.594Z,11.27
2018-12-18T16:55:36.151Z,11.93
2018-12-18T16:58:04.689Z,12.30
2018-12-18T17:00:33.258Z,14.10
2018-12-18T17:03:01.801Z,12.47
2018-12-18T17:05:30.362Z,13.90
2018-12-18T17:07:58.888Z,13.33
2018-12-18T17:10:27.431Z,14.37
2018-12-18T17:12:56.818Z,11.87
2018-12-18T17:15:25.642Z,11.67
2018-12-18T17:17:54.182Z,11.93
2018-12-18T17:20:22.706Z,13.13
2018-12-18T17:22:51.243Z,13.83
2018-12-18T17:25:19.778Z,11.93
2018-12-18T17:27:48.309Z,11.37
2018-12-18T17:30:17.090Z,11.37
2018-12-18T17:32:45.624Z,12.80
2018-12-18T17:35:14.194Z,13.23
2018-12-18T17:37:42.758Z,13.00
2018-12-18T17:40:11.325Z,13.27
2018-12-18T17:42:39.870Z,12.07
2018-12-18T17:45:08.823Z,12.30
2018-12-18T17:47:37.382Z,13.03
2018-12-18T17:50:07.157Z,13.03
2018-12-18T17:52:35.733Z,12.53
2018-12-18T17:55:04.558Z,12.93
2018-12-18T17:57:33.101Z,15.17
2018-12-18T18:00:01.735Z,12.90
2018-12-18T18:02:30.312Z,14.40
2018-12-18T18:04:58.920Z,13.77
2018-12-18T18:07:27.506Z,15.37
2018-12-18T18:09:56.078Z,15.80
2018-12-18T18:12:29.911Z,15.83
2018-12-18T18:14:55.303Z,16.43
2018-12-18T18:17:23.911Z,15.43
2018-12-18T18:19:52.472Z,16.00
2018-12-18T18:22:21.071Z,16.17
2018-12-18T18:24:49.655Z,16.37
2018-12-18T18:27:18.639Z,15.43
2018-12-18T18:29:47.217Z,16.47
2018-12-18T18:32:15.784Z,21.37
2018-12-18T18:34:44.356Z,27.00
2018-12-18T18:37:12.934Z,17.00
2018-12-18T18:39:41.495Z,18.67
2018-12-18T18:42:10.065Z,19.77
2018-12-18T18:44:38.697Z,16.43
2018-12-18T18:47:07.267Z,18.37
2018-12-18T18:49:35.895Z,18.93
2018-12-18T18:52:04.548Z,16.07
2018-12-18T18:54:34.517Z,16.73
2018-12-18T18:57:03.586Z,17.30
2018-12-18T18:59:32.404Z,17.50
2018-12-18T19:02:00.998Z,18.10
2018-12-18T19:04:29.882Z,17.20
2018-12-18T19:06:58.648Z,22.17
2018-12-18T19:09:27.239Z,17.07
2018-12-18T19:11:55.841Z,16.70
2018-12-18T19:14:24.422Z,18.87
2018-12-18T19:16:52.963Z,18.10
2018-12-18T19:19:21.548Z,17.60
2018-12-18T19:21:50.107Z,17.43
2018-12-18T19:24:18.706Z,17.43
2018-12-18T19:26:47.250Z,17.57
2018-12-18T19:29:15.830Z,18.43
2018-12-18T19:31:44.831Z,19.17
2018-12-18T19:34:13.374Z,19.17
2018-12-18T19:36:42.134Z,18.07
2018-12-18T19:39:10.794Z,19.33
2018-12-18T19:41:39.472Z,18.93
2018-12-18T19:44:08.111Z,18.33
2018-12-18T19:46:36.695Z,19.40
2018-12-18T19:49:05.264Z,19.83
2018-12-18T19:51:33.828Z,20.60
2018-12-18T19:54:02.394Z,20.27
2018-12-18T19:56:31.042Z,20.30
2018-12-18T19:58:59.633Z,19.33
2018-12-18T20:01:28.199Z,20.60
2018-12-18T20:03:56.737Z,19.30
2018-12-18T20:06:25.283Z,22.07
2018-12-18T20:08:53.921Z,27.13
2018-12-18T20:11:22.438Z,55.87
2018-12-18T20:13:50.990Z,39.93
2018-12-18T20:16:19.601Z,22.17
2018-12-18T20:18:48.237Z,23.80
2018-12-18T20:21:16.908Z,20.70
2018-12-18T20:23:45.686Z,46.87
2018-12-18T20:26:14.762Z,24.47
2018-12-18T20:28:43.484Z,22.13
2018-12-18T20:31:12.234Z,30.40
2018-12-18T20:33:40.890Z,21.07
2018-12-18T20:36:09.515Z,30.30
2018-12-18T20:38:38.106Z,27.23
2018-12-18T20:41:06.705Z,21.47
2018-12-18T20:43:35.352Z,34.93
2018-12-18T20:46:04.057Z,21.90
2018-12-18T20:48:32.670Z,21.33
2018-12-18T20:51:01.299Z,22.60
2018-12-18T20:53:30.220Z,21.47
2018-12-18T20:55:58.985Z,21.23
2018-12-18T20:58:27.666Z,19.90
2018-12-18T21:00:56.317Z,21.00
2018-12-18T21:03:24.892Z,22.33
2018-12-18T21:05:53.630Z,20.93
2018-12-18T21:08:23.518Z,22.80
2018-12-18T21:10:52.634Z,20.53
2018-12-18T21:13:29.637Z,19.40
2018-12-18T21:15:58.609Z,20.57
2018-12-18T21:18:27.214Z,18.93
2018-12-18T21:20:55.830Z,17.53
2018-12-18T21:23:24.473Z,17.93
2018-12-18T21:25:53.070Z,20.37
2018-12-18T21:28:21.658Z,19.10
2018-12-18T21:30:50.230Z,24.07
2018-12-18T21:33:19.111Z,24.77
2018-12-18T21:35:47.713Z,21.10
2018-12-18T21:38:16.302Z,19.37
2018-12-18T21:40:44.906Z,19.37
2018-12-18T21:43:13.536Z,20.90
2018-12-18T21:45:42.130Z,20.83
2018-12-18T21:48:10.730Z,18.90
2018-12-18T21:50:39.365Z,19.87
2018-12-18T21:53:07.934Z,18.77
2018-12-18T21:55:36.494Z,19.17
2018-12-18T21:58:05.070Z,20.07
2018-12-18T22:00:33.638Z,20.90
2018-12-18T22:03:02.187Z,21.60
2018-12-18T22:05:30.807Z,19.93
2018-12-18T22:07:59.489Z,19.33
2018-12-18T22:10:28.083Z,21.13
2018-12-18T22:12:56.614Z,26.07
2018-12-18T22:15:25.174Z,19.47
2018-12-18T22:17:53.694Z,21.03
2018-12-18T22:20:22.382Z,21.37
2018-12-18T22:22:51.025Z,19.93
2018-12-18T22:25:19.578Z,20.27
2018-12-18T22:27:48.555Z,21.80
2018-12-18T22:30:17.217Z,22.30
2018-12-18T22:32:45.902Z,20.70
2018-12-18T22:35:14.571Z,23.20
2018-12-18T22:37:43.102Z,30.23
2018-12-18T22:40:11.853Z,40.53
2018-12-18T22:42:40.415Z,24.10
2018-12-18T22:45:09.078Z,18.97
2018-12-18T22:47:37.612Z,20.07
2018-12-18T22:50:07.590Z,21.10
2018-12-18T22:52:36.116Z,20.53
2018-12-18T22:55:05.093Z,19.80
2018-12-18T22:57:33.666Z,19.87
2018-12-18T23:00:02.211Z,20.53
2018-12-18T23:02:30.757Z,20.07
2018-12-18T23:04:59.821Z,19.93
2018-12-18T23:07:28.359Z,20.40
2018-12-18T23:09:56.917Z,19.20
2018-12-18T23:12:25.462Z,20.90
2018-12-18T23:14:54.020Z,20.00
2018-12-18T23:17:22.578Z,18.83
2018-12-18T23:19:51.111Z,19.40
2018-12-18T23:22:19.634Z,19.43
2018-12-18T23:24:48.155Z,19.57
2018-12-18T23:27:16.725Z,20.27
2018-12-18T23:29:45.258Z,19.10
2018-12-18T23:32:13.773Z,20.03
2018-12-18T23:34:42.310Z,19.70
2018-12-18T23:37:10.850Z,19.53
2018-12-18T23:39:39.413Z,19.27
2018-12-18T23:42:07.984Z,20.13
2018-12-18T23:44:36.626Z,18.97
2018-12-18T23:47:05.158Z,18.93
2018-12-18T23:49:33.732Z,19.87
2018-12-18T23:52:02.296Z,22.70
2018-12-18T23:54:30.818Z,19.63
2018-12-18T23:56:59.341Z,20.43
2018-12-18T23:59:27.885Z,20.03
